Time;durP1;ratioP1;P1;durP2;ratioP2;P2;SDS_P1;SDS_P2;PMS_P1;PMS_P2;Temp;Humidity;BMP_temperature;BMP_pressure;BME280_temperature;BME280_humidity;BME280_pressure;Samples;Min_cycle;Max_cycle;Signal;HPM_P1;HPM_P2
2022/06/30 00:01:35;;;;;;;8.00;2.80;;;;;;;;;;5067839;28;20048;-67
2022/06/30 00:04:02;;;;;;;7.78;2.40;;;;;;;;;;5062164;28;20060;-67
2022/06/30 00:06:29;;;;;;;4.38;2.17;;;;;;;;;;5067299;28;20052;-66
2022/06/30 00:08:55;;;;;;;4.13;2.33;;;;;;;;;;5061918;28;20056;-67
2022/06/30 00:11:22;;;;;;;4.20;2.33;;;;;;;;;;5068147;28;20055;-66
2022/06/30 00:13:51;;;;;;;3.90;2.28;;;;;;;;;;5063053;28;20044;-67
2022/06/30 00:16:18;;;;;;;4.35;2.38;;;;;;;;;;5066996;28;20055;-66
2022/06/30 00:18:47;;;;;;;5.95;2.50;;;;;;;;;;5061953;28;20053;-66
2022/06/30 00:21:13;;;;;;;4.18;2.28;;;;;;;;;;5067509;28;20106;-67
2022/06/30 00:23:40;;;;;;;4.88;2.53;;;;;;;;;;5067025;28;20064;-66
2022/06/30 00:26:07;;;;;;;5.85;2.42;;;;;;;;;;5080053;28;20166;-66
2022/06/30 00:28:34;;;;;;;6.13;3.30;;;;;;;;;;5065333;28;20060;-66
2022/06/30 00:31:00;;;;;;;7.22;3.63;;;;;;;;;;5060873;28;20056;-66
2022/06/30 00:33:27;;;;;;;5.43;2.67;;;;;;;;;;5068556;28;20144;-64
2022/06/30 00:35:55;;;;;;;4.40;2.60;;;;;;;;;;5060695;28;20052;-64
2022/06/30 00:38:22;;;;;;;7.82;3.58;;;;;;;;;;5066839;28;20084;-65
2022/06/30 00:40:48;;;;;;;4.05;2.30;;;;;;;;;;5068990;28;20052;-65
2022/06/30 00:43:15;;;;;;;4.40;2.50;;;;;;;;;;5066256;28;20077;-64
2022/06/30 00:45:42;;;;;;;6.10;3.42;;;;;;;;;;5061105;28;20052;-64
2022/06/30 00:48:09;;;;;;;3.58;2.35;;;;;;;;;;5066931;28;20040;-64
2022/06/30 00:50:36;;;;;;;9.25;3.63;;;;;;;;;;5062017;28;20044;-64
2022/06/30 00:53:04;;;;;;;5.63;2.90;;;;;;;;;;5066600;28;20052;-63
2022/06/30 00:55:32;;;;;;;6.05;2.85;;;;;;;;;;5061046;28;20049;-64
2022/06/30 00:58:00;;;;;;;5.10;2.55;;;;;;;;;;5067106;28;20044;-64
2022/06/30 01:00:27;;;;;;;3.20;2.08;;;;;;;;;;5061497;28;20155;-64
2022/06/30 01:02:54;;;;;;;6.00;2.80;;;;;;;;;;5066703;28;20052;-64
2022/06/30 01:05:21;;;;;;;9.02;3.28;;;;;;;;;;5063268;28;20048;-64
2022/06/30 01:07:48;;;;;;;4.57;2.70;;;;;;;;;;5065075;28;20060;-64
2022/06/30 01:13:01;;;;;;;5.03;2.95;;;;;;;;;;5063876;28;20072;-64
2022/06/30 01:15:27;;;;;;;4.20;2.35;;;;;;;;;;5066202;28;20041;-64
2022/06/30 01:17:54;;;;;;;6.05;3.05;;;;;;;;;;5060988;28;20044;-64
2022/06/30 01:20:25;;;;;;;14.90;5.53;;;;;;;;;;5067943;28;20047;-64
2022/06/30 01:22:53;;;;;;;6.25;3.08;;;;;;;;;;5060450;28;20052;-64
2022/06/30 01:25:20;;;;;;;9.18;3.78;;;;;;;;;;5066325;28;20089;-64
2022/06/30 01:27:46;;;;;;;8.38;4.05;;;;;;;;;;5060134;28;20052;-64
2022/06/30 01:30:13;;;;;;;7.03;3.97;;;;;;;;;;5066899;28;20056;-64
2022/06/30 01:32:40;;;;;;;5.00;2.92;;;;;;;;;;5060675;28;20064;-64
2022/06/30 01:35:07;;;;;;;8.43;4.57;;;;;;;;;;5066244;28;20052;-64
2022/06/30 01:37:44;;;;;;;5.18;2.70;;;;;;;;;;5060462;28;20055;-64
2022/06/30 01:40:13;;;;;;;8.40;4.45;;;;;;;;;;5076846;28;20178;-64
2022/06/30 01:42:39;;;;;;;4.82;2.80;;;;;;;;;;5062515;28;20063;-64
2022/06/30 01:45:07;;;;;;;7.80;3.67;;;;;;;;;;5069656;28;20052;-64
2022/06/30 01:47:34;;;;;;;12.32;4.88;;;;;;;;;;5064601;28;20041;-64
2022/06/30 01:50:01;;;;;;;5.00;2.97;;;;;;;;;;5087226;28;20056;-64
2022/06/30 01:52:27;;;;;;;7.93;4.50;;;;;;;;;;5082432;28;20742;-65
2022/06/30 01:54:54;;;;;;;9.63;3.13;;;;;;;;;;5069816;28;20048;-64
2022/06/30 01:57:23;;;;;;;5.70;2.65;;;;;;;;;;5067820;28;20047;-64
2022/06/30 01:59:49;;;;;;;5.13;2.92;;;;;;;;;;5085302;28;20059;-64
2022/06/30 02:02:16;;;;;;;6.53;3.47;;;;;;;;;;5069778;28;20073;-64
2022/06/30 02:04:48;;;;;;;9.13;5.25;;;;;;;;;;5049835;28;20077;-64
2022/06/30 02:07:15;;;;;;;5.80;2.80;;;;;;;;;;5065284;28;20044;-64
2022/06/30 02:09:42;;;;;;;7.85;3.70;;;;;;;;;;5077507;28;20053;-64
2022/06/30 02:14:54;;;;;;;9.50;4.40;;;;;;;;;;5064526;28;20060;-64
2022/06/30 02:17:21;;;;;;;7.55;3.67;;;;;;;;;;5069619;28;20056;-64
2022/06/30 02:19:47;;;;;;;7.32;4.53;;;;;;;;;;5064306;28;20059;-64
2022/06/30 02:22:14;;;;;;;5.15;3.05;;;;;;;;;;5068969;28;20041;-64
2022/06/30 02:24:40;;;;;;;10.25;4.05;;;;;;;;;;5063658;28;20071;-64
2022/06/30 02:27:07;;;;;;;8.98;5.43;;;;;;;;;;5068960;28;20048;-64
2022/06/30 02:29:33;;;;;;;6.97;4.18;;;;;;;;;;5063933;28;20052;-64
2022/06/30 02:32:02;;;;;;;5.13;3.10;;;;;;;;;;5069182;28;20102;-65
2022/06/30 02:34:29;;;;;;;7.72;4.40;;;;;;;;;;5064044;28;20048;-64
2022/06/30 02:36:55;;;;;;;7.22;4.05;;;;;;;;;;5085979;28;20095;-64
2022/06/30 02:39:22;;;;;;;8.63;4.35;;;;;;;;;;5080808;28;20052;-64
2022/06/30 02:41:48;;;;;;;11.77;6.45;;;;;;;;;;5068847;28;20044;-64
2022/06/30 02:44:15;;;;;;;6.63;3.22;;;;;;;;;;5065057;28;20057;-64
2022/06/30 02:46:42;;;;;;;4.88;2.80;;;;;;;;;;5068754;28;20099;-65
2022/06/30 02:49:10;;;;;;;13.45;6.50;;;;;;;;;;5068788;28;20063;-64
2022/06/30 02:51:37;;;;;;;11.10;7.07;;;;;;;;;;5063033;28;20052;-64
2022/06/30 02:54:03;;;;;;;12.25;6.22;;;;;;;;;;5068011;28;20052;-64
2022/06/30 02:56:30;;;;;;;6.75;3.83;;;;;;;;;;5063123;28;20055;-64
2022/06/30 02:58:57;;;;;;;8.23;4.63;;;;;;;;;;5069045;28;20060;-64
2022/06/30 03:01:24;;;;;;;8.15;4.55;;;;;;;;;;5061579;28;20048;-65
2022/06/30 03:03:50;;;;;;;7.28;3.40;;;;;;;;;;5068416;28;20060;-65
2022/06/30 03:06:18;;;;;;;6.43;3.28;;;;;;;;;;5060566;28;20056;-64
2022/06/30 03:08:47;;;;;;;6.78;3.28;;;;;;;;;;5068811;28;20280;-64
2022/06/30 03:11:16;;;;;;;;;;;;;;;;;;5080701;28;20106;-64
2022/06/30 03:13:43;;;;;;;10.25;6.05;;;;;;;;;;5069387;28;19931;-64
2022/06/30 03:16:09;;;;;;;11.48;6.18;;;;;;;;;;5062979;28;20108;-65
2022/06/30 03:18:36;;;;;;;7.07;3.60;;;;;;;;;;5066907;28;20102;-64
2022/06/30 03:21:02;;;;;;;6.93;4.05;;;;;;;;;;5062804;28;20044;-64
2022/06/30 03:23:30;;;;;;;10.27;5.85;;;;;;;;;;5068435;28;20036;-64
2022/06/30 03:25:57;;;;;;;9.32;5.35;;;;;;;;;;5060732;28;20132;-64
2022/06/30 03:28:24;;;;;;;6.82;3.58;;;;;;;;;;5068053;28;20036;-65
2022/06/30 03:30:50;;;;;;;6.70;2.95;;;;;;;;;;5067502;28;20057;-64
2022/06/30 03:33:18;;;;;;;5.70;3.17;;;;;;;;;;5063399;28;20052;-64
2022/06/30 03:35:45;;;;;;;6.10;3.28;;;;;;;;;;5077277;28;20063;-64
2022/06/30 03:38:13;;;;;;;9.77;4.03;;;;;;;;;;5050924;28;20056;-64
2022/06/30 03:40:41;;;;;;;10.10;5.72;;;;;;;;;;5067715;28;20052;-66
2022/06/30 03:43:08;;;;;;;12.30;6.97;;;;;;;;;;5062216;28;20053;-66
2022/06/30 03:45:35;;;;;;;7.70;4.10;;;;;;;;;;5085239;28;20163;-66
2022/06/30 03:48:02;;;;;;;10.65;6.13;;;;;;;;;;5062214;28;20151;-66
2022/06/30 03:50:30;;;;;;;8.73;3.83;;;;;;;;;;5067604;28;20056;-66
2022/06/30 03:52:56;;;;;;;8.63;4.93;;;;;;;;;;5062371;28;20064;-66
2022/06/30 03:55:23;;;;;;;6.43;3.70;;;;;;;;;;5084687;28;20052;-67
2022/06/30 03:57:51;;;;;;;15.00;6.85;;;;;;;;;;5062050;28;20053;-66
2022/06/30 04:00:18;;;;;;;7.32;4.32;;;;;;;;;;5065534;28;20052;-66
2022/06/30 04:02:45;;;;;;;13.85;6.65;;;;;;;;;;5060048;28;20088;-66
2022/06/30 04:05:12;;;;;;;6.78;3.95;;;;;;;;;;5065554;28;20094;-66
2022/06/30 04:07:40;;;;;;;11.57;6.68;;;;;;;;;;5060257;28;20041;-66
2022/06/30 04:10:07;;;;;;;8.18;4.20;;;;;;;;;;5066785;28;20060;-66
2022/06/30 04:12:34;;;;;;;13.63;6.50;;;;;;;;;;5066718;28;20052;-66
2022/06/30 04:15:02;;;;;;;7.78;4.55;;;;;;;;;;5062616;28;20052;-66
2022/06/30 04:17:29;;;;;;;6.82;3.47;;;;;;;;;;5066062;28;20056;-66
2022/06/30 04:19:55;;;;;;;10.73;6.25;;;;;;;;;;5060917;28;20223;-66
2022/06/30 04:22:22;;;;;;;13.80;6.40;;;;;;;;;;5065689;28;20068;-66
2022/06/30 04:24:48;;;;;;;6.97;4.15;;;;;;;;;;5061638;28;20057;-66
2022/06/30 04:27:17;;;;;;;8.70;4.22;;;;;;;;;;5065367;28;20052;-67
2022/06/30 04:29:44;;;;;;;6.47;3.35;;;;;;;;;;5060882;28;20073;-66
2022/06/30 04:34:56;;;;;;;16.63;8.23;;;;;;;;;;5059170;28;20079;-66
2022/06/30 04:37:23;;;;;;;14.90;8.32;;;;;;;;;;5065934;28;20044;-66
2022/06/30 04:41:23;;;;;;;8.40;4.55;;;;;;;;;;5059166;28;20053;-66
2022/06/30 04:42:35;;;;;;;13.32;6.53;;;;;;;;;;5066102;28;20109;-66
2022/06/30 04:45:02;;;;;;;13.68;7.38;;;;;;;;;;5060098;28;20056;-66
2022/06/30 04:47:30;;;;;;;17.13;6.38;;;;;;;;;;5065658;28;20122;-65
2022/06/30 04:49:57;;;;;;;9.35;5.35;;;;;;;;;;5060647;28;20057;-66
2022/06/30 04:52:23;;;;;;;15.55;7.72;;;;;;;;;;5066195;28;20059;-65
2022/06/30 04:54:52;;;;;;;8.80;5.05;;;;;;;;;;5059275;28;20056;-66
2022/06/30 04:57:19;;;;;;;8.68;4.93;;;;;;;;;;5063677;28;20052;-65
2022/06/30 04:59:45;;;;;;;10.55;5.97;;;;;;;;;;5061025;28;20060;-68
2022/06/30 05:02:12;;;;;;;11.93;5.90;;;;;;;;;;5066271;28;20152;-67
2022/06/30 05:04:40;;;;;;;7.25;3.88;;;;;;;;;;5057102;28;20040;-66
2022/06/30 05:07:08;;;;;;;11.43;5.38;;;;;;;;;;5058820;28;20109;-66
2022/06/30 05:09:34;;;;;;;10.18;4.63;;;;;;;;;;5062952;28;20059;-66
2022/06/30 05:12:01;;;;;;;7.28;3.85;;;;;;;;;;5057302;28;20048;-66
2022/06/30 05:14:27;;;;;;;9.80;6.10;;;;;;;;;;5064944;28;20056;-66
2022/06/30 05:16:54;;;;;;;25.40;9.75;;;;;;;;;;5055386;28;20053;-66
2022/06/30 05:19:20;;;;;;;7.30;3.92;;;;;;;;;;5063533;28;20059;-66
2022/06/30 05:21:48;;;;;;;8.27;4.22;;;;;;;;;;5056096;28;20071;-65
2022/06/30 05:26:59;;;;;;;12.90;4.70;;;;;;;;;;5086231;28;20079;-66
2022/06/30 05:29:26;;;;;;;20.70;10.60;;;;;;;;;;5062961;28;20053;-67
2022/06/30 05:31:52;;;;;;;17.33;10.27;;;;;;;;;;5064081;28;20088;-67
2022/06/30 05:34:20;;;;;;;10.63;5.65;;;;;;;;;;5085165;28;20060;-66
2022/06/30 05:36:46;;;;;;;23.60;12.00;;;;;;;;;;5064168;28;20052;-66
2022/06/30 05:39:17;;;;;;;17.58;10.88;;;;;;;;;;5086415;28;20060;-66
2022/06/30 05:41:48;;;;;;;13.70;6.82;;;;;;;;;;5062881;28;20088;-66
2022/06/30 05:44:14;;;;;;;17.17;10.52;;;;;;;;;;5056024;28;20059;-65
2022/06/30 05:46:41;;;;;;;21.88;12.38;;;;;;;;;;5063613;28;20056;-66
2022/06/30 05:49:08;;;;;;;9.73;5.43;;;;;;;;;;5093708;28;20063;-66
2022/06/30 05:51:35;;;;;;;9.68;4.35;;;;;;;;;;5059442;28;20063;-66
2022/06/30 05:54:02;;;;;;;16.17;9.88;;;;;;;;;;5064414;28;20070;-66
2022/06/30 05:56:30;;;;;;;22.08;11.48;;;;;;;;;;5054418;28;20059;-66
2022/06/30 05:59:00;;;;;;;15.30;7.55;;;;;;;;;;5064655;28;20067;-66
2022/06/30 06:01:27;;;;;;;13.13;6.18;;;;;;;;;;5056265;28;20048;-66
2022/06/30 06:03:53;;;;;;;13.52;7.28;;;;;;;;;;5066196;28;20048;-66
2022/06/30 06:06:20;;;;;;;10.38;6.13;;;;;;;;;;5061162;28;20059;-66
2022/06/30 06:08:47;;;;;;;23.63;11.43;;;;;;;;;;5055718;28;20093;-67
2022/06/30 06:11:14;;;;;;;16.77;9.07;;;;;;;;;;5067282;28;20044;-67
2022/06/30 06:13:42;;;;;;;19.67;12.02;;;;;;;;;;5060708;28;20048;-66
2022/06/30 06:16:09;;;;;;;22.25;11.43;;;;;;;;;;5066175;28;20067;-66
2022/06/30 06:18:35;;;;;;;22.45;12.70;;;;;;;;;;5059697;28;20055;-66
2022/06/30 06:21:04;;;;;;;20.73;11.98;;;;;;;;;;5065281;28;20052;-66
2022/06/30 06:23:31;;;;;;;16.08;9.27;;;;;;;;;;5060441;28;20051;-66
2022/06/30 06:25:57;;;;;;;14.75;6.80;;;;;;;;;;5065116;28;20076;-66
2022/06/30 06:31:09;;;;;;;18.95;10.40;;;;;;;;;;5068986;28;20040;-66
2022/06/30 06:33:36;;;;;;;14.75;8.15;;;;;;;;;;5063103;28;20135;-66
2022/06/30 06:36:03;;;;;;;11.77;6.53;;;;;;;;;;5084897;28;20159;-65
2022/06/30 06:38:31;;;;;;;24.55;11.88;;;;;;;;;;5079574;28;20075;-65
2022/06/30 06:40:57;;;;;;;21.43;10.50;;;;;;;;;;5068646;28;20052;-65
2022/06/30 06:43:24;;;;;;;19.10;12.00;;;;;;;;;;5068232;28;20044;-66
2022/06/30 06:45:51;;;;;;;22.08;9.45;;;;;;;;;;5062807;28;20079;-66
2022/06/30 06:48:22;;;;;;;26.88;14.75;;;;;;;;;;5068658;28;20052;-66
2022/06/30 06:50:48;;;;;;;20.73;11.27;;;;;;;;;;5063271;28;20075;-66
2022/06/30 06:53:15;;;;;;;16.38;9.38;;;;;;;;;;5068266;28;20044;-67
2022/06/30 06:55:42;;;;;;;24.45;12.65;;;;;;;;;;5062801;28;20121;-65
2022/06/30 06:58:10;;;;;;;24.70;14.50;;;;;;;;;;5068109;28;20048;-66
2022/06/30 07:00:37;;;;;;;19.60;11.88;;;;;;;;;;5062946;28;20057;-65
2022/06/30 07:03:03;;;;;;;18.80;9.90;;;;;;;;;;5068418;28;20063;-63
2022/06/30 07:05:32;;;;;;;21.95;13.90;;;;;;;;;;5062229;28;20061;-63
2022/06/30 07:07:58;;;;;;;16.73;9.45;;;;;;;;;;5068964;28;20052;-66
2022/06/30 07:10:26;;;;;;;22.75;11.63;;;;;;;;;;5064423;28;20048;-64
2022/06/30 07:12:52;;;;;;;24.70;13.70;;;;;;;;;;5045922;28;20052;-64
2022/06/30 07:15:19;;;;;;;33.15;16.73;;;;;;;;;;5064006;28;20067;-64
2022/06/30 07:17:45;;;;;;;21.30;14.23;;;;;;;;;;5068612;28;20067;-64
2022/06/30 07:20:12;;;;;;;18.98;10.85;;;;;;;;;;5061227;28;20048;-64
2022/06/30 07:22:40;;;;;;;15.20;9.45;;;;;;;;;;5068156;28;20056;-64
2022/06/30 07:25:08;;;;;;;25.00;14.65;;;;;;;;;;5064056;28;20147;-64
2022/06/30 07:27:35;;;;;;;20.57;12.27;;;;;;;;;;5061916;28;20072;-64
2022/06/30 07:30:02;;;;;;;13.68;8.45;;;;;;;;;;5069663;28;20294;-65
2022/06/30 07:32:29;;;;;;;23.45;13.60;;;;;;;;;;5079450;28;20045;-64
2022/06/30 07:34:55;;;;;;;23.83;13.48;;;;;;;;;;5067589;28;20113;-64
2022/06/30 07:37:23;;;;;;;14.82;9.50;;;;;;;;;;5061583;28;20152;-64
2022/06/30 07:39:51;;;;;;;20.10;12.30;;;;;;;;;;5067465;28;20056;-63
2022/06/30 07:42:18;;;;;;;16.95;9.50;;;;;;;;;;5061551;28;20123;-64
2022/06/30 07:44:44;;;;;;;22.25;11.63;;;;;;;;;;5067752;28;20050;-64
2022/06/30 07:47:23;;;;;;;23.35;11.80;;;;;;;;;;5087060;28;20044;-64
2022/06/30 07:49:50;;;;;;;16.15;7.95;;;;;;;;;;5050445;28;20059;-64
2022/06/30 07:52:17;;;;;;;17.15;10.85;;;;;;;;;;5078078;28;20059;-64
2022/06/30 07:54:43;;;;;;;19.17;10.15;;;;;;;;;;5047243;28;20068;-64
2022/06/30 07:57:12;;;;;;;20.08;9.88;;;;;;;;;;5047435;28;20067;-64
2022/06/30 07:59:39;;;;;;;18.85;8.90;;;;;;;;;;5067596;28;20048;-64
2022/06/30 08:02:05;;;;;;;17.20;8.88;;;;;;;;;;5061724;28;20052;-65
2022/06/30 08:04:33;;;;;;;20.23;8.18;;;;;;;;;;5084010;28;20048;-64
2022/06/30 08:07:01;;;;;;;17.38;8.55;;;;;;;;;;5078068;28;20067;-64
2022/06/30 08:09:28;;;;;;;17.70;8.18;;;;;;;;;;5067710;28;20064;-64
2022/06/30 08:11:54;;;;;;;14.63;7.65;;;;;;;;;;5067072;28;20135;-65
2022/06/30 08:14:23;;;;;;;16.30;7.10;;;;;;;;;;5060854;28;20055;-64
2022/06/30 08:16:49;;;;;;;;;;;;;;;;;;5067289;28;20076;-64
2022/06/30 08:19:16;;;;;;;18.83;7.65;;;;;;;;;;5061506;28;19932;-64
2022/06/30 08:21:43;;;;;;;11.80;6.63;;;;;;;;;;5067199;28;20043;-64
2022/06/30 08:24:10;;;;;;;12.45;5.38;;;;;;;;;;5060947;28;20056;-64
2022/06/30 08:26:36;;;;;;;18.15;7.50;;;;;;;;;;5082699;28;20052;-64
2022/06/30 08:29:04;;;;;;;14.05;5.95;;;;;;;;;;5061280;28;20053;-64
2022/06/30 08:31:33;;;;;;;15.05;6.43;;;;;;;;;;5066778;28;20059;-65
2022/06/30 08:34:00;;;;;;;11.77;6.72;;;;;;;;;;5061257;28;20056;-65
2022/06/30 08:36:26;;;;;;;11.40;5.18;;;;;;;;;;5066016;28;20052;-64
2022/06/30 08:38:54;;;;;;;12.63;5.90;;;;;;;;;;5061260;28;20072;-64
2022/06/30 08:44:05;;;;;;;10.88;5.13;;;;;;;;;;5060932;28;20106;-63
2022/06/30 08:46:34;;;;;;;10.70;5.07;;;;;;;;;;5065870;28;20048;-64
2022/06/30 08:49:03;;;;;;;10.32;4.20;;;;;;;;;;5076850;28;20105;-63
2022/06/30 08:51:30;;;;;;;9.90;5.00;;;;;;;;;;5067081;28;20056;-64
2022/06/30 08:53:59;;;;;;;13.80;4.50;;;;;;;;;;5061544;28;20071;-65
2022/06/30 08:56:29;;;;;;;9.60;4.00;;;;;;;;;;5067340;28;20053;-64
2022/06/30 08:58:56;;;;;;;9.25;4.13;;;;;;;;;;5061431;28;20060;-65
2022/06/30 09:01:23;;;;;;;9.85;4.15;;;;;;;;;;5064378;28;20125;-64
2022/06/30 09:03:51;;;;;;;8.68;3.78;;;;;;;;;;5060210;28;20059;-64
2022/06/30 09:06:18;;;;;;;10.02;4.00;;;;;;;;;;5057919;28;20061;-63
2022/06/30 09:08:44;;;;;;;7.05;3.47;;;;;;;;;;5064992;28;20047;-65
2022/06/30 09:11:11;;;;;;;11.07;4.13;;;;;;;;;;5061282;28;20059;-65
2022/06/30 09:13:41;;;;;;;12.50;3.78;;;;;;;;;;5065860;28;20052;-65
2022/06/30 09:16:08;;;;;;;7.22;3.58;;;;;;;;;;5060549;28;20049;-64
2022/06/30 09:18:35;;;;;;;8.00;3.10;;;;;;;;;;5066487;28;20040;-64
2022/06/30 09:21:07;;;;;;;9.40;3.55;;;;;;;;;;5061119;28;20049;-64
2022/06/30 09:23:35;;;;;;;10.77;4.40;;;;;;;;;;5065364;28;20056;-64
2022/06/30 09:26:02;;;;;;;11.60;4.47;;;;;;;;;;5062200;28;20060;-65
2022/06/30 09:28:47;;;;;;;7.53;3.20;;;;;;;;;;5084201;28;20041;-64
2022/06/30 09:31:15;;;;;;;8.65;3.90;;;;;;;;;;5070871;28;20056;-64
2022/06/30 09:33:44;;;;;;;7.63;3.50;;;;;;;;;;5083245;28;20063;-65
2022/06/30 09:36:26;;;;;;;9.35;4.85;;;;;;;;;;5077537;28;20130;-65
2022/06/30 09:39:00;;;;;;;7.32;3.45;;;;;;;;;;5065717;28;20106;-64
2022/06/30 09:41:27;;;;;;;6.60;3.13;;;;;;;;;;5072712;28;20166;-65
2022/06/30 09:43:54;;;;;;;12.45;4.35;;;;;;;;;;5066053;28;20057;-64
2022/06/30 09:46:21;;;;;;;10.90;4.38;;;;;;;;;;5077015;28;20056;-64
2022/06/30 09:48:48;;;;;;;6.57;2.97;;;;;;;;;;5066199;28;20076;-63
2022/06/30 09:51:15;;;;;;;12.48;3.97;;;;;;;;;;5077218;28;20139;-65
2022/06/30 09:53:43;;;;;;;10.93;3.88;;;;;;;;;;5083223;28;20053;-65
2022/06/30 09:56:13;;;;;;;8.55;3.05;;;;;;;;;;5076206;28;20064;-65
2022/06/30 09:58:42;;;;;;;7.63;3.13;;;;;;;;;;5066185;28;20056;-64
2022/06/30 10:01:08;;;;;;;;;;;;;;;;;;5066623;28;20067;-65
2022/06/30 10:03:35;;;;;;;12.07;3.10;;;;;;;;;;5057758;28;19974;-65
2022/06/30 10:06:09;;;;;;;6.40;2.75;;;;;;;;;;5079138;28;20060;-66
2022/06/30 10:08:36;;;;;;;5.72;2.17;;;;;;;;;;5097176;28;20048;-65
2022/06/30 10:11:04;;;;;;;7.25;2.60;;;;;;;;;;5068472;28;20052;-65
2022/06/30 10:13:34;;;;;;;6.47;2.10;;;;;;;;;;5063634;28;20055;-65
2022/06/30 10:16:03;;;;;;;9.38;3.00;;;;;;;;;;5076913;28;20056;-65
2022/06/30 10:18:31;;;;;;;12.20;3.05;;;;;;;;;;5070521;28;20138;-65
2022/06/30 10:20:58;;;;;;;8.63;3.25;;;;;;;;;;5070140;28;20060;-65
2022/06/30 10:23:25;;;;;;;8.50;3.00;;;;;;;;;;5063869;28;20052;-65
2022/06/30 10:25:54;;;;;;;10.82;3.22;;;;;;;;;;5085610;28;20067;-66
2022/06/30 10:28:23;;;;;;;7.63;3.33;;;;;;;;;;5081091;28;20157;-66
2022/06/30 10:30:53;;;;;;;6.10;2.35;;;;;;;;;;5069744;28;20109;-66
2022/06/30 10:33:24;;;;;;;6.28;2.97;;;;;;;;;;5077299;28;20060;-66
2022/06/30 10:35:56;;;;;;;6.82;2.40;;;;;;;;;;5085337;28;20094;-65
2022/06/30 10:38:26;;;;;;;8.18;2.60;;;;;;;;;;5063063;28;20055;-66
2022/06/30 10:40:55;;;;;;;10.95;2.75;;;;;;;;;;5067613;28;20055;-67
2022/06/30 10:43:23;;;;;;;6.43;2.78;;;;;;;;;;5063729;28;20113;-65
2022/06/30 10:45:59;;;;;;;7.53;2.28;;;;;;;;;;5068341;28;20052;-67
2022/06/30 10:48:28;;;;;;;8.60;2.40;;;;;;;;;;5063942;28;20056;-67
2022/06/30 10:50:56;;;;;;;10.95;3.10;;;;;;;;;;5068744;28;20075;-65
2022/06/30 10:53:37;;;;;;;9.30;2.47;;;;;;;;;;5064657;28;20142;-64
2022/06/30 10:56:05;;;;;;;5.45;2.03;;;;;;;;;;5047686;28;20052;-65
2022/06/30 10:58:35;;;;;;;8.95;2.00;;;;;;;;;;5045368;28;20171;-66
2022/06/30 11:01:02;;;;;;;5.68;1.95;;;;;;;;;;5049268;28;20171;-67
2022/06/30 11:03:59;;;;;;;6.45;2.30;;;;;;;;;;5067743;28;20045;-66
2022/06/30 11:06:41;;;;;;;7.05;1.95;;;;;;;;;;5048110;28;20059;-66
2022/06/30 11:09:07;;;;;;;6.45;1.85;;;;;;;;;;5061777;28;20060;-66
2022/06/30 11:11:44;;;;;;;6.15;1.73;;;;;;;;;;5068811;28;20102;-67
2022/06/30 11:14:27;;;;;;;12.55;4.13;;;;;;;;;;5064278;28;20048;-66
2022/06/30 11:16:54;;;;;;;8.30;3.67;;;;;;;;;;5048843;28;20056;-66
2022/06/30 11:19:23;;;;;;;6.73;2.00;;;;;;;;;;5045390;28;20053;-66
2022/06/30 11:21:50;;;;;;;11.18;2.97;;;;;;;;;;5059247;28;20076;-66
2022/06/30 11:24:17;;;;;;;6.80;2.53;;;;;;;;;;5067437;28;20056;-65
2022/06/30 11:29:30;;;;;;;5.63;1.98;;;;;;;;;;5067632;28;20071;-66
2022/06/30 11:31:59;;;;;;;10.77;2.30;;;;;;;;;;5079600;28;20053;-65
2022/06/30 11:34:26;;;;;;;5.07;2.28;;;;;;;;;;5067917;28;20048;-66
2022/06/30 11:36:53;;;;;;;8.70;2.80;;;;;;;;;;5078681;28;20130;-65
2022/06/30 11:39:20;;;;;;;10.13;3.00;;;;;;;;;;5068756;28;20056;-66
2022/06/30 11:41:57;;;;;;;7.60;2.45;;;;;;;;;;5051787;28;20056;-67
2022/06/30 11:44:24;;;;;;;8.20;2.70;;;;;;;;;;5055822;28;20117;-66
2022/06/30 11:46:54;;;;;;;7.53;2.33;;;;;;;;;;5071271;28;20131;-64
2022/06/30 11:49:20;;;;;;;8.13;1.80;;;;;;;;;;5068410;28;20067;-66
2022/06/30 11:51:47;;;;;;;6.05;3.03;;;;;;;;;;5061214;28;20048;-67
2022/06/30 11:54:15;;;;;;;4.60;1.60;;;;;;;;;;5067023;28;20053;-66
2022/06/30 11:56:45;;;;;;;4.47;2.22;;;;;;;;;;5061506;28;20056;-66
2022/06/30 11:59:11;;;;;;;7.22;2.70;;;;;;;;;;5084473;28;20105;-66
2022/06/30 12:01:38;;;;;;;8.18;2.60;;;;;;;;;;5079448;28;20068;-67
2022/06/30 12:04:16;;;;;;;5.65;2.40;;;;;;;;;;5081296;28;20056;-66
2022/06/30 12:06:43;;;;;;;9.35;2.17;;;;;;;;;;5076191;28;20059;-67
2022/06/30 12:09:09;;;;;;;8.52;2.28;;;;;;;;;;5067688;28;20095;-65
2022/06/30 12:11:36;;;;;;;6.20;2.30;;;;;;;;;;5079589;28;20055;-65
2022/06/30 12:14:03;;;;;;;5.47;2.22;;;;;;;;;;5067146;28;20101;-66
2022/06/30 12:16:30;;;;;;;4.95;2.00;;;;;;;;;;5065526;28;20056;-65
2022/06/30 12:18:56;;;;;;;9.15;2.25;;;;;;;;;;5066324;28;20071;-65
2022/06/30 12:21:25;;;;;;;3.63;1.88;;;;;;;;;;5067913;28;20048;-65
2022/06/30 12:23:51;;;;;;;;;;;;;;;;;;5062199;28;20059;-66
2022/06/30 12:26:18;;;;;;;6.30;2.08;;;;;;;;;;5083013;28;20012;-66
2022/06/30 12:28:45;;;;;;;8.52;1.90;;;;;;;;;;5061169;28;20049;-65
2022/06/30 12:31:12;;;;;;;3.90;1.70;;;;;;;;;;5060921;28;20048;-66
2022/06/30 12:33:39;;;;;;;4.85;1.70;;;;;;;;;;5061458;28;20049;-66
2022/06/30 12:36:06;;;;;;;7.28;2.08;;;;;;;;;;5084136;28;20124;-66
2022/06/30 12:38:35;;;;;;;5.95;2.00;;;;;;;;;;5062875;28;20053;-66
2022/06/30 12:41:07;;;;;;;4.82;1.90;;;;;;;;;;5068946;28;20102;-64
2022/06/30 12:43:43;;;;;;;5.07;1.70;;;;;;;;;;5062675;28;20048;-66
2022/06/30 12:46:10;;;;;;;7.00;1.80;;;;;;;;;;5082777;28;20052;-65
2022/06/30 12:48:41;;;;;;;7.28;1.75;;;;;;;;;;5078984;28;20048;-67
2022/06/30 12:51:09;;;;;;;6.47;1.67;;;;;;;;;;5067847;28;20083;-66
2022/06/30 12:53:38;;;;;;;3.20;1.70;;;;;;;;;;5075654;28;20044;-66
2022/06/30 12:56:06;;;;;;;5.05;1.50;;;;;;;;;;5067371;28;20044;-66
2022/06/30 12:58:32;;;;;;;;;;;;;;;;;;5061812;28;20102;-65
2022/06/30 13:01:00;;;;;;;5.38;1.70;;;;;;;;;;5067112;28;19930;-66
2022/06/30 13:03:26;;;;;;;6.55;1.58;;;;;;;;;;5060253;28;20114;-65
2022/06/30 13:05:53;;;;;;;5.07;1.67;;;;;;;;;;5097499;28;20056;-65
2022/06/30 13:08:19;;;;;;;6.40;1.90;;;;;;;;;;5066138;28;20044;-66
2022/06/30 13:11:06;;;;;;;9.32;1.98;;;;;;;;;;5061053;28;20057;-65
2022/06/30 13:13:32;;;;;;;3.53;1.63;;;;;;;;;;5083291;28;20065;-65
2022/06/30 13:15:59;;;;;;;10.88;1.55;;;;;;;;;;5077200;28;20048;-66
2022/06/30 13:18:26;;;;;;;5.38;1.48;;;;;;;;;;5065762;28;20082;-66
2022/06/30 13:20:55;;;;;;;4.07;1.40;;;;;;;;;;5060710;28;20060;-66
2022/06/30 13:23:22;;;;;;;7.35;1.90;;;;;;;;;;5082812;28;20048;-66
2022/06/30 13:25:50;;;;;;;4.25;1.45;;;;;;;;;;5076821;28;20059;-66
2022/06/30 13:28:17;;;;;;;5.15;1.50;;;;;;;;;;5054189;28;20139;-66
2022/06/30 13:30:45;;;;;;;6.20;1.42;;;;;;;;;;5060577;28;20106;-66
2022/06/30 13:33:12;;;;;;;8.20;1.90;;;;;;;;;;5083693;28;20044;-65
2022/06/30 13:35:39;;;;;;;9.25;2.78;;;;;;;;;;5060211;28;20083;-65
2022/06/30 13:38:05;;;;;;;8.45;2.33;;;;;;;;;;5065938;28;20061;-65
2022/06/30 13:40:35;;;;;;;6.15;1.80;;;;;;;;;;5064443;28;20102;-66
2022/06/30 13:43:05;;;;;;;5.90;2.25;;;;;;;;;;5086589;28;20059;-66
2022/06/30 13:45:32;;;;;;;4.95;1.50;;;;;;;;;;5064041;28;20049;-66
2022/06/30 13:47:59;;;;;;;5.18;1.77;;;;;;;;;;5069493;28;20052;-66
2022/06/30 13:50:25;;;;;;;9.15;2.35;;;;;;;;;;5062014;28;20083;-66
2022/06/30 13:52:52;;;;;;;5.18;1.52;;;;;;;;;;5069676;28;20058;-66
2022/06/30 13:55:19;;;;;;;7.88;2.30;;;;;;;;;;5069812;28;20051;-66
2022/06/30 13:57:46;;;;;;;9.93;2.55;;;;;;;;;;5065876;28;20060;-66
2022/06/30 14:00:14;;;;;;;9.40;1.60;;;;;;;;;;5070131;28;20094;-66
2022/06/30 14:02:41;;;;;;;3.45;1.55;;;;;;;;;;5064449;28;20080;-66
2022/06/30 14:05:08;;;;;;;6.53;2.50;;;;;;;;;;5037379;28;20053;-66
2022/06/30 14:07:35;;;;;;;11.70;2.33;;;;;;;;;;5099538;27;20048;-66
2022/06/30 14:10:02;;;;;;;8.85;2.67;;;;;;;;;;5069037;28;20310;-66
2022/06/30 14:12:28;;;;;;;7.22;2.72;;;;;;;;;;5064143;28;20048;-66
2022/06/30 14:14:55;;;;;;;9.95;1.98;;;;;;;;;;5071113;28;20049;-66
2022/06/30 14:17:23;;;;;;;11.02;2.38;;;;;;;;;;5075100;28;20057;-67
2022/06/30 14:19:50;;;;;;;8.23;1.85;;;;;;;;;;5070685;28;20052;-65
2022/06/30 14:22:16;;;;;;;6.70;1.88;;;;;;;;;;5064744;28;20116;-65
2022/06/30 14:24:43;;;;;;;5.93;2.25;;;;;;;;;;5085079;28;20052;-65
2022/06/30 14:27:10;;;;;;;4.95;1.95;;;;;;;;;;5064311;28;20054;-65
2022/06/30 14:29:37;;;;;;;8.35;2.63;;;;;;;;;;5069589;28;20110;-65
2022/06/30 14:32:04;;;;;;;6.07;1.77;;;;;;;;;;5063543;28;20151;-65
2022/06/30 14:34:32;;;;;;;5.22;2.22;;;;;;;;;;5068594;28;20131;-66
2022/06/30 14:36:58;;;;;;;8.40;2.00;;;;;;;;;;5065683;28;20055;-65
2022/06/30 14:39:25;;;;;;;5.70;1.85;;;;;;;;;;5066515;28;20059;-65
2022/06/30 14:44:36;;;;;;;6.85;2.10;;;;;;;;;;5065703;28;20079;-66
2022/06/30 14:47:02;;;;;;;5.82;1.50;;;;;;;;;;5068000;28;20063;-65
2022/06/30 14:49:29;;;;;;;6.65;1.67;;;;;;;;;;5081986;28;20048;-66
2022/06/30 14:51:57;;;;;;;6.75;1.95;;;;;;;;;;5068127;28;20052;-64
2022/06/30 14:54:23;;;;;;;;;;;;;;;;;;5062731;28;20048;-65
2022/06/30 14:56:50;;;;;;;3.60;1.58;;;;;;;;;;5064101;28;19924;-65
2022/06/30 14:59:17;;;;;;;5.47;2.00;;;;;;;;;;5060946;28;20060;-65
2022/06/30 15:01:44;;;;;;;7.30;1.90;;;;;;;;;;5065580;28;20068;-66
2022/06/30 15:04:10;;;;;;;5.32;1.77;;;;;;;;;;5060158;28;20063;-66